Terminal Aerodrome Forecast
Issued by NWS Jackson, MS

Home | Current Version | Previous Version | Text Only | Print | Product List | Glossary On
Versions: 1 2 3 4 5 6 7 8 9 10 11 12
345
FTUS44 KJAN 081120
TAFHBG
TAF
KHBG 081120Z 0812/0912 26009KT P6SM SKC
     FM081600 30015G23KT P6SM SCT250
     FM082000 30016G24KT P6SM OVC100
     FM090000 28010KT P6SM BKN050=

USA.gov is the U.S. government's official web portal to all federal, state and local government web resources and services.